aviador You're here:

KMEM Decoded Metar

MEMPHIS in TN, USA
Report Time2018-05-25 07:54:00
UTC Time2018-05-25 09:00:37
Flight Rules vfr VFR
WindCalm
Visibility9999 m
Phenomena:N/A
Clouds:Broken 150 Hf
Expected CloudBase > 400 ft AGL from Temp-Dew spread
Ceiling15,000 ft
Temp22°C (ISA +8)
Dew Point21°C (94% RH)
QNH1016 hPa
Density Alt1,391 ft
Elevation282 ft
Report Wrong Elevation
Raw Report
METAR KMEM 250754Z 00000KT 10SM BKN150 22/21 A3000 RMK AO2 SLP155 T02220211
$=

Extra information for KMEM:More info

Metar Taf Metar & Taf Last 4 Metars F.Rules Stats Wind Profile Meteogram Temp Stats Airport Information Weather charts Add Link Nearby VenuesMetar ALERT Operation Metar Decoded Social comments

AIRNAV info for KMEM